createdAt,value
2023-03-21T00:00:40.510Z,96702.34
2023-03-21T00:03:07.555Z,96695.84
2023-03-21T00:05:34.076Z,96693.34
2023-03-21T00:08:02.325Z,96703.44
2023-03-21T00:10:39.449Z,96689.47
2023-03-21T00:13:08.013Z,96695.94
2023-03-21T00:15:44.315Z,96695.25
2023-03-21T00:18:15.814Z,96693.16
2023-03-21T00:20:47.195Z,96690.13
2023-03-21T00:23:13.559Z,96683.94
2023-03-21T00:25:40.288Z,96687.53
2023-03-21T00:28:08.649Z,96682.00
2023-03-21T00:30:35.323Z,96680.16
2023-03-21T00:33:12.068Z,96670.88
2023-03-21T00:35:58.409Z,96671.25
2023-03-21T00:38:28.773Z,96672.09
2023-03-21T00:40:55.733Z,96667.25
2023-03-21T00:43:29.840Z,96664.50
2023-03-21T00:46:00.693Z,96665.06
2023-03-21T00:48:27.861Z,96668.34
2023-03-21T00:50:57.019Z,96670.53
2023-03-21T00:53:24.028Z,96667.22
2023-03-21T00:55:51.905Z,96676.31
2023-03-21T00:58:19.410Z,96673.97
2023-03-21T01:00:48.710Z,96668.81
2023-03-21T01:03:24.260Z,96669.34
2023-03-21T01:06:07.149Z,96668.91
2023-03-21T01:08:54.795Z,96665.69
2023-03-21T01:11:27.501Z,96657.31
2023-03-21T01:14:04.200Z,96659.53
2023-03-21T01:16:38.221Z,96654.69
2023-03-21T01:19:09.435Z,96657.13
2023-03-21T01:21:38.521Z,96648.53
2023-03-21T01:24:05.445Z,96650.75
2023-03-21T01:26:32.005Z,96654.75
2023-03-21T01:28:59.366Z,96653.78
2023-03-21T01:31:25.789Z,96653.19
2023-03-21T01:33:52.207Z,96655.88
2023-03-21T01:36:23.568Z,96653.78
2023-03-21T01:38:52.432Z,96651.03
2023-03-21T01:41:33.628Z,96646.84
2023-03-21T01:44:04.319Z,96641.41
2023-03-21T01:46:53.953Z,96639.03
2023-03-21T01:49:38.613Z,96637.25
2023-03-21T01:52:15.296Z,96641.84
2023-03-21T01:54:47.788Z,96643.19
2023-03-21T01:57:22.032Z,96641.91
2023-03-21T01:59:51.253Z,96639.41
2023-03-21T02:02:26.554Z,96644.06
2023-03-21T02:04:56.044Z,96636.75
2023-03-21T02:07:29.176Z,96638.41
2023-03-21T02:09:56.292Z,96640.63
2023-03-21T02:12:23.064Z,96630.53
2023-03-21T02:14:51.598Z,96629.28
2023-03-21T02:17:23.625Z,96630.53
2023-03-21T02:20:02.467Z,96627.09
2023-03-21T02:22:53.481Z,96632.84
2023-03-21T02:25:28.953Z,96630.47
2023-03-21T02:27:58.420Z,96631.69
2023-03-21T02:30:50.957Z,96628.22
2023-03-21T02:33:29.686Z,96617.16
2023-03-21T02:36:26.219Z,96619.19
2023-03-21T02:39:13.643Z,96616.09
2023-03-21T02:41:56.026Z,96605.06
2023-03-21T02:44:44.165Z,96614.13
2023-03-21T02:47:22.604Z,96617.13
2023-03-21T02:50:03.186Z,96621.06
2023-03-21T02:52:39.251Z,96618.13
2023-03-21T02:55:13.836Z,96626.28
2023-03-21T02:57:43.908Z,96613.22
2023-03-21T03:00:17.768Z,96623.47
2023-03-21T03:02:45.429Z,96623.94
2023-03-21T03:05:21.574Z,96617.59
2023-03-21T03:08:06.860Z,96605.38
2023-03-21T03:10:44.576Z,96609.06
2023-03-21T03:13:33.606Z,96606.56
2023-03-21T03:16:15.435Z,96602.91
2023-03-21T03:18:51.421Z,96602.88
2023-03-21T03:21:32.549Z,96606.69
2023-03-21T03:24:06.167Z,96603.81
2023-03-21T03:26:41.066Z,96603.41
2023-03-21T03:29:12.099Z,96603.59
2023-03-21T03:31:47.807Z,96606.47
2023-03-21T03:34:20.752Z,96599.91
2023-03-21T03:36:51.528Z,96606.94
2023-03-21T03:39:18.779Z,96597.69
2023-03-21T03:42:21.809Z,96599.22
2023-03-21T03:44:39.661Z,96602.09
2023-03-21T03:47:09.698Z,96603.75
2023-03-21T03:49:43.318Z,96596.59
2023-03-21T03:52:26.406Z,96594.59
2023-03-21T03:54:53.617Z,96597.31
2023-03-21T03:57:20.326Z,96598.00
2023-03-21T03:59:49.781Z,96604.56
2023-03-21T04:02:17.177Z,96605.34
2023-03-21T04:04:43.821Z,96602.06
2023-03-21T04:07:10.292Z,96607.63
2023-03-21T04:09:44.086Z,96608.72
2023-03-21T04:12:12.691Z,96614.19
2023-03-21T04:14:45.665Z,96612.53
2023-03-21T04:17:13.813Z,96608.75
2023-03-21T04:19:40.217Z,96612.66
2023-03-21T04:22:07.162Z,96608.25
2023-03-21T04:24:33.824Z,96603.97
2023-03-21T04:27:00.732Z,96614.66
2023-03-21T04:29:29.529Z,96609.91
2023-03-21T04:31:56.546Z,96613.47
2023-03-21T04:34:23.969Z,96613.13
2023-03-21T04:36:50.809Z,96616.78
2023-03-21T04:39:18.998Z,96613.84
2023-03-21T04:41:46.206Z,96607.81
2023-03-21T04:44:14.125Z,96613.38
2023-03-21T04:46:40.937Z,96614.91
2023-03-21T04:49:07.627Z,96616.22
2023-03-21T04:51:34.831Z,96612.66
2023-03-21T04:54:01.231Z,96613.16
2023-03-21T04:56:33.656Z,96613.38
2023-03-21T04:59:04.974Z,96603.66
2023-03-21T05:01:31.465Z,96604.47
2023-03-21T05:03:58.880Z,96593.31
2023-03-21T05:06:26.394Z,96593.78
2023-03-21T05:08:52.794Z,96597.34
2023-03-21T05:11:19.157Z,96591.53
2023-03-21T05:13:46.232Z,96602.47
2023-03-21T05:16:12.627Z,96598.53
2023-03-21T05:18:39.110Z,96600.44
2023-03-21T05:21:10.690Z,96597.59
2023-03-21T05:23:38.319Z,96593.31
2023-03-21T05:26:07.062Z,96597.72
2023-03-21T05:28:36.571Z,96596.63
2023-03-21T05:31:04.213Z,96592.50
2023-03-21T05:33:30.749Z,96592.00
2023-03-21T05:35:57.259Z,96600.19
2023-03-21T05:38:24.954Z,96607.06
2023-03-21T05:40:51.733Z,96602.31
2023-03-21T05:43:18.077Z,96603.50
2023-03-21T05:45:44.395Z,96606.00
2023-03-21T05:48:11.003Z,96604.69
2023-03-21T05:50:38.922Z,96607.19
2023-03-21T05:53:05.255Z,96606.00
2023-03-21T05:55:31.566Z,96606.81
2023-03-21T05:57:57.924Z,96602.69
2023-03-21T06:00:24.706Z,96600.53
2023-03-21T06:02:51.152Z,96603.50
2023-03-21T06:05:17.526Z,96594.50
2023-03-21T06:07:43.870Z,96600.88
2023-03-21T06:10:11.037Z,96602.19
2023-03-21T06:12:37.439Z,96605.88
2023-03-21T06:15:05.781Z,96605.38
2023-03-21T06:17:32.722Z,96605.38
2023-03-21T06:20:00.983Z,96606.25
2023-03-21T06:22:28.234Z,96611.34
2023-03-21T06:24:55.120Z,96613.84
2023-03-21T06:27:21.497Z,96617.03
2023-03-21T06:29:47.858Z,96616.34
2023-03-21T06:32:14.301Z,96620.16
2023-03-21T06:34:40.715Z,96612.78
2023-03-21T06:37:07.064Z,96608.53
2023-03-21T06:39:33.656Z,96621.78
2023-03-21T06:42:00.878Z,96620.84
2023-03-21T06:44:27.957Z,96616.56
2023-03-21T06:46:54.518Z,96622.28
2023-03-21T06:49:22.309Z,96623.22
2023-03-21T06:51:48.766Z,96621.81
2023-03-21T06:54:17.588Z,96625.56
2023-03-21T06:56:43.948Z,96626.31
2023-03-21T06:59:10.268Z,96622.38
2023-03-21T07:01:36.878Z,96624.84
2023-03-21T07:04:04.484Z,96616.75
2023-03-21T07:06:30.900Z,96615.31
2023-03-21T07:08:57.356Z,96612.34
2023-03-21T07:11:24.688Z,96616.69
2023-03-21T07:13:51.549Z,96617.38
2023-03-21T07:16:19.357Z,96617.69
2023-03-21T07:18:46.541Z,96619.44
2023-03-21T07:21:13.159Z,96622.63
2023-03-21T07:23:40.049Z,96621.00
2023-03-21T07:26:06.823Z,96619.84
2023-03-21T07:28:33.550Z,96616.84
2023-03-21T07:31:04.199Z,96620.31
2023-03-21T07:33:31.968Z,96615.66
2023-03-21T07:35:59.198Z,96613.00
2023-03-21T07:38:26.441Z,96616.50
2023-03-21T07:40:53.244Z,96617.00
2023-03-21T07:43:20.272Z,96611.44
2023-03-21T07:45:46.874Z,96616.75
2023-03-21T07:48:13.981Z,96612.88
2023-03-21T07:50:40.977Z,96606.47
2023-03-21T07:53:08.160Z,96616.06
2023-03-21T07:55:35.051Z,96613.84
2023-03-21T07:58:02.608Z,96609.41
2023-03-21T08:00:29.106Z,96612.22
2023-03-21T08:02:58.906Z,96611.19
2023-03-21T08:05:33.086Z,96609.03
2023-03-21T08:07:59.798Z,96611.84
2023-03-21T08:10:27.300Z,96604.34
2023-03-21T08:12:53.890Z,96601.63
2023-03-21T08:15:20.462Z,96608.53
2023-03-21T08:17:47.276Z,96607.66
2023-03-21T08:20:21.128Z,96607.66
2023-03-21T08:22:49.226Z,96602.41
2023-03-21T08:25:17.799Z,96607.00
2023-03-21T08:27:45.776Z,96595.25
2023-03-21T08:30:16.429Z,96600.56
2023-03-21T08:32:43.321Z,96598.22
2023-03-21T08:35:12.569Z,96598.44
2023-03-21T08:37:40.765Z,96585.53
2023-03-21T08:40:11.263Z,96601.06
2023-03-21T08:42:38.353Z,96607.91
2023-03-21T08:45:05.832Z,96603.28
2023-03-21T08:47:32.498Z,96596.66
2023-03-21T08:49:59.305Z,96592.34
2023-03-21T08:52:27.019Z,96586.06
2023-03-21T08:54:54.352Z,96588.69
2023-03-21T08:57:21.236Z,96589.28
2023-03-21T08:59:47.563Z,96586.75
2023-03-21T09:02:16.129Z,96583.84
2023-03-21T09:04:44.570Z,96582.50
2023-03-21T09:07:14.925Z,96587.66
2023-03-21T09:09:41.662Z,96592.47
2023-03-21T09:12:08.300Z,96582.91
2023-03-21T09:14:35.254Z,96587.72
2023-03-21T09:17:01.787Z,96583.44
2023-03-21T09:19:28.319Z,96581.41
2023-03-21T09:21:55.647Z,96588.56
2023-03-21T09:24:22.746Z,96594.69
2023-03-21T09:26:51.596Z,96599.19
2023-03-21T09:29:21.564Z,96594.91
2023-03-21T09:31:48.194Z,96594.28
2023-03-21T09:34:15.617Z,96596.50
2023-03-21T09:36:44.143Z,96578.31
2023-03-21T09:39:11.930Z,96584.69
2023-03-21T09:42:02.637Z,96578.88
2023-03-21T09:44:52.639Z,96584.03
2023-03-21T09:47:29.246Z,96584.16
2023-03-21T09:50:12.921Z,96579.75
2023-03-21T09:53:01.689Z,96581.81
2023-03-21T09:55:31.562Z,96585.84
2023-03-21T09:58:13.747Z,96578.09
2023-03-21T10:00:45.903Z,96582.88
2023-03-21T10:03:26.212Z,96586.06
2023-03-21T10:06:01.071Z,96582.88
2023-03-21T10:08:41.144Z,96578.91
2023-03-21T10:11:21.805Z,96571.81
2023-03-21T10:13:57.159Z,96566.13
2023-03-21T10:16:30.898Z,96574.31
2023-03-21T10:19:00.803Z,96562.34
2023-03-21T10:21:56.625Z,96569.78
2023-03-21T10:24:19.753Z,96560.34
2023-03-21T10:26:46.855Z,96561.19
2023-03-21T10:29:14.908Z,96561.72
2023-03-21T10:31:42.550Z,96553.69
2023-03-21T10:34:20.561Z,96563.16
2023-03-21T10:36:47.095Z,96562.47
2023-03-21T10:39:24.570Z,96559.44
2023-03-21T10:41:51.046Z,96556.44
2023-03-21T10:44:19.544Z,96551.91
2023-03-21T10:46:57.742Z,96541.91
2023-03-21T10:49:26.629Z,96548.22
2023-03-21T10:51:58.685Z,96541.75
2023-03-21T10:54:31.136Z,96541.03
2023-03-21T10:57:05.947Z,96536.34
2023-03-21T10:59:41.700Z,96540.09
2023-03-21T11:02:19.511Z,96539.97
2023-03-21T11:04:46.235Z,96534.13
2023-03-21T11:07:15.151Z,96536.66
2023-03-21T11:09:54.502Z,96534.34
2023-03-21T11:12:37.065Z,96533.06
2023-03-21T11:15:31.427Z,96536.22
2023-03-21T11:17:59.455Z,96542.47
2023-03-21T11:20:30.249Z,96534.88
2023-03-21T11:22:56.899Z,96531.28
2023-03-21T11:25:33.481Z,96531.66
2023-03-21T11:28:07.040Z,96518.78
2023-03-21T11:30:33.715Z,96516.59
2023-03-21T11:33:06.822Z,96516.16
2023-03-21T11:35:39.292Z,96512.38
2023-03-21T11:38:07.317Z,96506.38
2023-03-21T11:40:36.225Z,96504.25
2023-03-21T11:43:23.666Z,96506.47
2023-03-21T11:46:09.993Z,96508.75
2023-03-21T11:48:43.759Z,96493.59
2023-03-21T11:51:22.420Z,96494.41
2023-03-21T11:54:00.286Z,96489.34
2023-03-21T11:56:32.107Z,96479.03
2023-03-21T11:59:07.529Z,96473.06
2023-03-21T12:02:17.176Z,96467.34
2023-03-21T12:04:55.849Z,96471.75
2023-03-21T12:07:50.305Z,96465.47
2023-03-21T12:10:36.959Z,96457.66
2023-03-21T12:13:29.778Z,96458.22
2023-03-21T12:16:23.834Z,96455.94
2023-03-21T12:19:07.818Z,96455.59
2023-03-21T12:21:55.995Z,96446.00
2023-03-21T12:24:31.195Z,96445.38
2023-03-21T12:27:19.097Z,96434.47
2023-03-21T12:29:53.809Z,96438.28
2023-03-21T12:32:42.524Z,96433.00
2023-03-21T12:35:35.359Z,96430.53
2023-03-21T12:38:25.401Z,96435.47
2023-03-21T12:41:22.328Z,96432.63
2023-03-21T12:44:08.912Z,96434.94
2023-03-21T12:46:55.382Z,96427.03
2023-03-21T12:49:34.122Z,96423.41
2023-03-21T12:52:12.578Z,96419.63
2023-03-21T12:54:43.815Z,96407.75
2023-03-21T12:57:19.053Z,96411.69
2023-03-21T13:00:00.258Z,96399.97
2023-03-21T13:02:31.952Z,96391.81
2023-03-21T13:05:24.624Z,96391.94
2023-03-21T13:08:00.645Z,96402.00
2023-03-21T13:10:27.435Z,96391.38
2023-03-21T13:13:13.351Z,96381.25
2023-03-21T13:15:52.771Z,96381.53
2023-03-21T13:18:33.003Z,96387.44
2023-03-21T13:21:11.157Z,96385.00
2023-03-21T13:23:39.078Z,96379.81
2023-03-21T13:26:12.282Z,96376.38
2023-03-21T13:28:41.303Z,96377.75
2023-03-21T13:31:24.842Z,96372.47
2023-03-21T13:33:53.905Z,96376.38
2023-03-21T13:36:29.916Z,96361.72
2023-03-21T13:39:06.753Z,96364.28
2023-03-21T13:41:37.017Z,96364.38
2023-03-21T13:44:03.283Z,96352.81
2023-03-21T13:46:31.192Z,96358.25
2023-03-21T13:49:13.578Z,96348.94
2023-03-21T13:51:51.357Z,96345.56
2023-03-21T13:54:22.368Z,96344.50
2023-03-21T13:56:51.939Z,96338.22
2023-03-21T13:59:42.297Z,96339.47
2023-03-21T14:02:28.361Z,96342.88
2023-03-21T14:05:08.863Z,96353.81
2023-03-21T14:07:44.324Z,96349.41
2023-03-21T14:10:24.877Z,96346.94
2023-03-21T14:12:52.602Z,96341.66
2023-03-21T14:15:25.723Z,96347.31
2023-03-21T14:17:56.821Z,96344.16
2023-03-21T14:20:27.181Z,96350.59
2023-03-21T14:22:53.865Z,96337.00
2023-03-21T14:25:24.374Z,96334.44
2023-03-21T14:27:59.945Z,96341.56
2023-03-21T14:30:30.216Z,96332.66
2023-03-21T14:32:58.851Z,96333.31
2023-03-21T14:35:31.097Z,96326.00
2023-03-21T14:38:01.422Z,96330.41
2023-03-21T14:40:28.857Z,96325.84
2023-03-21T14:42:55.903Z,96327.69
2023-03-21T14:45:26.890Z,96331.19
2023-03-21T14:48:04.017Z,96334.53
2023-03-21T14:50:42.730Z,96328.00
2023-03-21T14:53:17.239Z,96326.34
2023-03-21T14:55:47.641Z,96327.88
2023-03-21T14:58:16.791Z,96327.88
2023-03-21T15:00:43.469Z,96321.47
2023-03-21T15:03:12.601Z,96320.09
2023-03-21T15:05:41.819Z,96323.34
2023-03-21T15:08:11.266Z,96327.97
2023-03-21T15:10:38.577Z,96319.72
2023-03-21T15:13:45.546Z,96318.06
2023-03-21T15:16:14.726Z,96315.50
2023-03-21T15:18:42.866Z,96311.84
2023-03-21T15:21:16.674Z,96320.69
2023-03-21T15:23:48.019Z,96305.88
2023-03-21T15:26:16.884Z,96302.53
2023-03-21T15:28:46.513Z,96306.81
2023-03-21T15:31:25.306Z,96303.97
2023-03-21T15:33:53.679Z,96303.72
2023-03-21T15:36:25.322Z,96309.44
2023-03-21T15:38:52.609Z,96313.31
2023-03-21T15:41:18.908Z,96303.91
2023-03-21T15:43:53.989Z,96306.41
2023-03-21T15:46:44.293Z,96308.19
2023-03-21T15:49:14.487Z,96301.03
2023-03-21T15:51:45.054Z,96305.88
2023-03-21T15:54:19.027Z,96303.06
2023-03-21T15:56:51.673Z,96297.28
2023-03-21T15:59:19.382Z,96300.16
2023-03-21T16:01:47.764Z,96299.88
2023-03-21T16:04:14.616Z,96305.63
2023-03-21T16:07:02.468Z,96305.75
2023-03-21T16:09:39.088Z,96313.50
2023-03-21T16:12:12.423Z,96299.44
2023-03-21T16:14:39.355Z,96302.78
2023-03-21T16:17:33.209Z,96308.00
2023-03-21T16:20:00.670Z,96300.72
2023-03-21T16:22:28.478Z,96302.25
2023-03-21T16:24:54.795Z,96299.59
2023-03-21T16:27:22.202Z,96303.09
2023-03-21T16:29:48.569Z,96306.38
2023-03-21T16:32:17.225Z,96310.56
2023-03-21T16:34:46.131Z,96307.28
2023-03-21T16:37:15.632Z,96307.06
2023-03-21T16:39:42.908Z,96316.63
2023-03-21T16:42:12.266Z,96314.19
2023-03-21T16:44:39.411Z,96310.81
2023-03-21T16:47:31.807Z,96322.47
2023-03-21T16:49:58.154Z,96322.97
2023-03-21T16:52:26.319Z,96318.16
2023-03-21T16:54:52.851Z,96325.59
2023-03-21T16:57:27.593Z,96320.41
2023-03-21T16:59:55.745Z,96324.56
2023-03-21T17:02:24.908Z,96330.91
2023-03-21T17:04:51.434Z,96328.91
2023-03-21T17:07:18.195Z,96328.41
2023-03-21T17:09:44.521Z,96330.00
2023-03-21T17:12:16.198Z,96329.63
2023-03-21T17:14:43.833Z,96333.63
2023-03-21T17:17:11.866Z,96332.84
2023-03-21T17:19:38.433Z,96343.25
2023-03-21T17:22:04.867Z,96336.78
2023-03-21T17:24:31.369Z,96348.63
2023-03-21T17:26:59.121Z,96341.81
2023-03-21T17:29:25.601Z,96335.25
2023-03-21T17:31:52.176Z,96339.56
2023-03-21T17:34:18.978Z,96341.50
2023-03-21T17:36:47.497Z,96348.72
2023-03-21T17:39:19.062Z,96346.13
2023-03-21T17:41:45.574Z,96339.22
2023-03-21T17:44:11.950Z,96339.41
2023-03-21T17:46:38.422Z,96344.84
2023-03-21T17:49:05.644Z,96349.00
2023-03-21T17:51:33.001Z,96345.00
2023-03-21T17:54:00.261Z,96346.41
2023-03-21T17:56:31.543Z,96355.28
2023-03-21T17:59:04.887Z,96354.69
2023-03-21T18:01:31.978Z,96353.56
2023-03-21T18:04:02.058Z,96349.59
2023-03-21T18:06:28.538Z,96351.38
2023-03-21T18:08:54.915Z,96357.84
2023-03-21T18:11:23.906Z,96366.09
2023-03-21T18:13:51.032Z,96358.91
2023-03-21T18:16:20.877Z,96357.88
2023-03-21T18:18:47.374Z,96355.34
2023-03-21T18:21:14.460Z,96353.53
2023-03-21T18:23:41.134Z,96357.78
2023-03-21T18:26:10.036Z,96360.44
2023-03-21T18:28:41.428Z,96357.63
2023-03-21T18:31:15.736Z,96355.41
2023-03-21T18:33:47.124Z,96361.59
2023-03-21T18:36:24.103Z,96361.59
2023-03-21T18:38:51.301Z,96358.94
2023-03-21T18:41:22.604Z,96362.72
2023-03-21T18:44:17.568Z,96372.31
2023-03-21T18:46:36.584Z,96374.16
2023-03-21T18:49:33.540Z,96367.06
2023-03-21T18:51:50.049Z,96369.41
2023-03-21T18:54:16.573Z,96368.56
2023-03-21T18:59:34.376Z,96378.03
2023-03-21T19:02:01.984Z,96373.13
2023-03-21T19:04:30.209Z,96375.94
2023-03-21T19:06:58.335Z,96378.81
2023-03-21T19:09:29.634Z,96376.66
2023-03-21T19:11:58.796Z,96382.09
2023-03-21T19:14:25.381Z,96378.50
2023-03-21T19:19:39.282Z,96388.59
2023-03-21T19:22:06.209Z,96383.50
2023-03-21T19:24:32.731Z,96387.94
2023-03-21T19:26:59.310Z,96384.00
2023-03-21T19:29:25.753Z,96386.28
2023-03-21T19:31:52.431Z,96388.28
2023-03-21T19:34:19.375Z,96386.81
2023-03-21T19:36:51.598Z,96384.34
2023-03-21T19:39:21.873Z,96385.50
2023-03-21T19:41:48.706Z,96385.50
2023-03-21T19:44:15.298Z,96376.25
2023-03-21T19:46:43.611Z,96386.00
2023-03-21T19:49:10.935Z,96385.19
2023-03-21T19:51:37.656Z,96389.34
2023-03-21T19:54:05.465Z,96387.72
2023-03-21T19:56:32.308Z,96395.84
2023-03-21T19:58:59.759Z,96395.19
2023-03-21T20:01:26.611Z,96400.94
2023-03-21T20:03:53.633Z,96398.47
2023-03-21T20:06:22.367Z,96396.81
2023-03-21T20:09:27.259Z,96392.69
2023-03-21T20:11:35.801Z,96391.38
2023-03-21T20:14:03.196Z,96394.19
2023-03-21T20:16:35.032Z,96393.38
2023-03-21T20:19:04.407Z,96396.53
2023-03-21T20:21:36.619Z,96388.59
2023-03-21T20:24:12.538Z,96392.91
2023-03-21T20:26:39.374Z,96393.22
2023-03-21T20:29:38.154Z,96389.59
2023-03-21T20:31:53.026Z,96394.88
2023-03-21T20:34:19.419Z,96385.63
2023-03-21T20:36:45.826Z,96387.94
2023-03-21T20:39:12.209Z,96390.41
2023-03-21T20:41:38.589Z,96387.94
2023-03-21T20:46:51.635Z,96376.69
2023-03-21T20:49:19.985Z,96381.97
2023-03-21T20:52:47.813Z,96378.66
2023-03-21T20:54:34.652Z,96381.47
2023-03-21T20:57:01.454Z,96379.13
2023-03-21T20:59:29.155Z,96381.28
2023-03-21T21:01:57.166Z,96381.28
2023-03-21T21:04:41.230Z,96379.34
2023-03-21T21:07:15.873Z,96372.41
2023-03-21T21:09:46.414Z,96369.25
2023-03-21T21:12:14.948Z,96371.06
2023-03-21T21:14:42.522Z,96361.81
2023-03-21T21:17:46.509Z,96367.75
2023-03-21T21:19:56.170Z,96370.88
2023-03-21T21:22:22.567Z,96361.94
2023-03-21T21:24:48.966Z,96359.19
2023-03-21T21:27:15.545Z,96363.66
2023-03-21T21:29:43.095Z,96370.53
2023-03-21T21:32:09.571Z,96377.59
2023-03-21T21:34:36.264Z,96372.03
2023-03-21T21:37:02.959Z,96369.47
2023-03-21T21:39:31.333Z,96368.91
2023-03-21T21:41:57.688Z,96368.44
2023-03-21T21:44:24.037Z,96363.53
2023-03-21T21:46:50.424Z,96360.41
2023-03-21T21:49:16.825Z,96363.38
2023-03-21T21:51:43.153Z,96362.59
2023-03-21T21:54:09.860Z,96364.97
2023-03-21T21:56:38.040Z,96362.41
2023-03-21T21:59:05.330Z,96374.09
2023-03-21T22:01:34.558Z,96369.59
2023-03-21T22:04:06.152Z,96361.94
2023-03-21T22:06:33.940Z,96372.72
2023-03-21T22:09:00.880Z,96360.91
2023-03-21T22:11:27.234Z,96358.81
2023-03-21T22:13:53.580Z,96366.22
2023-03-21T22:16:20.396Z,96365.91
2023-03-21T22:18:46.815Z,96366.13
2023-03-21T22:21:13.204Z,96378.16
2023-03-21T22:23:41.350Z,96380.28
2023-03-21T22:26:08.492Z,96384.72
2023-03-21T22:28:36.109Z,96383.56
2023-03-21T22:31:10.724Z,96387.25
2023-03-21T22:33:37.133Z,96391.28
2023-03-21T22:36:03.759Z,96391.63
2023-03-21T22:38:30.113Z,96393.03
2023-03-21T22:40:57.969Z,96389.78
2023-03-21T22:43:24.617Z,96388.66
2023-03-21T22:45:52.096Z,96389.16
2023-03-21T22:48:18.999Z,96393.06
2023-03-21T22:50:45.874Z,96392.25
2023-03-21T22:53:12.589Z,96395.00
2023-03-21T22:55:39.422Z,96394.38
2023-03-21T22:58:06.266Z,96390.63
2023-03-21T23:00:32.738Z,96394.72
2023-03-21T23:03:00.040Z,96390.16
2023-03-21T23:05:26.594Z,96392.25
2023-03-21T23:07:52.987Z,96392.06
2023-03-21T23:10:19.645Z,96396.69
2023-03-21T23:12:46.035Z,96389.78
2023-03-21T23:15:12.462Z,96384.69
2023-03-21T23:17:38.871Z,96384.50
2023-03-21T23:20:07.695Z,96389.16
2023-03-21T23:22:34.717Z,96399.03
2023-03-21T23:25:01.334Z,96405.22
2023-03-21T23:27:28.761Z,96406.25
2023-03-21T23:29:56.639Z,96399.69
2023-03-21T23:32:23.580Z,96396.69
2023-03-21T23:34:50.134Z,96401.44
2023-03-21T23:37:16.513Z,96399.78
2023-03-21T23:39:45.038Z,96392.41
2023-03-21T23:42:11.436Z,96388.28
2023-03-21T23:44:37.890Z,96389.13
2023-03-21T23:47:04.257Z,96382.84
2023-03-21T23:49:33.484Z,96388.44
2023-03-21T23:51:59.829Z,96384.44
2023-03-21T23:54:26.541Z,96386.81
2023-03-21T23:56:52.880Z,96390.09
2023-03-21T23:59:19.254Z,96393.47
